• Join FlightAware (Why Join?)
  • Login
  • US Flag 
05:49AM EDT


 

Airport Tracker/Info


-or-


 

Live Flight TrackerFlight Track Log ✈ UCA596 ✈ 27-Feb-2014 ✈ KIAD - KBGM

Flight Track Log - Related Links

Times and Time Zones

All times are in EST time to prevent confusion due to time zone crossing. See the UCA596 flight status page for this flight to view local times or setup timezone preferences in your user account.

Time Position Orientation Groundspeed Altitude Reporting Facility
EST Latitude Longitude Course Direction KTS MPH feet Rate Location/Type
01:36PM 38.9667 -77.5000 North 134 154 2,400  Level Potomac TRACON
01:37PM 39.0000 -77.5000 360° North 167 192 4,000 1,620 Climbing Potomac TRACON
01:40PM 39.1256 -77.4914 North 186 214 8,000 1,680 Climbing Washington Center
01:41PM 39.1800 -77.4847 North 186 214 9,800 1,500 Climbing Washington Center
01:42PM 39.3985 -77.4500 North  Level FlightAware Approximate
01:42PM 39.2258 -77.4831 North 175 201 11,100  Level Washington Center
01:43PM 39.2697 -77.4817 North 170 196 12,600 1,380 Climbing Washington Center
01:44PM 39.3175 -77.4775 North 170 196 13,900 1,140 Climbing Washington Center
01:45PM 39.3656 -77.4761 North 170 196 14,900 1,080 Climbing Washington Center
01:46PM 39.4178 -77.4719 North 176 203 16,200 1,140 Climbing Washington Center
01:47PM 39.4678 -77.4681 North 176 203 17,300 1,320 Climbing Washington Center
01:48PM 39.5200 -77.4667 North 176 203 18,800 840 Climbing Washington Center
01:49PM 39.5742 -77.4628 North 181 208 19,000 60 Climbing Washington Center
01:50PM 39.6572 -77.4536 North 220 253 19,000  Level New York Center
01:51PM 39.7136 -77.4536 360° North 226 260 19,000  Level New York Center
01:52PM 39.7803 -77.4517 North 220 253 19,000  Level New York Center
01:53PM 39.8489 -77.4203 19° North 233 268 19,000  Level New York Center
01:54PM 39.9222 -77.3758 25° Northeast 271 312 19,000  Level New York Center
01:55PM 39.9936 -77.3339 24° Northeast 276 318 19,000  Level New York Center
01:56PM 40.0667 -77.2919 24° Northeast 282 325 19,000  Level New York Center
01:57PM 40.1400 -77.2472 25° Northeast 287 330 19,000  Level New York Center
01:58PM 40.2133 -77.2050 24° Northeast 287 330 19,000  Level New York Center
01:59PM 40.2864 -77.1628 24° Northeast 287 330 19,000  Level New York Center
02:00PM 40.3511 -77.1253 24° Northeast 287 330 19,000  Level New York Center
02:01PM 40.4136 -77.0872 25° Northeast 287 330 19,000  Level New York Center
02:02PM 40.4911 -77.0397 25° Northeast 287 330 19,000 -300 Level New York Center
02:03PM 40.5664 -76.9947 24° Northeast 282 325 18,400 -840 Descending New York Center
02:04PM 40.6331 -76.9569 23° Northeast 282 325 17,400 -720 Descending New York Center
02:05PM 40.7147 -76.9069 25° Northeast 287 330 17,000 -240 Descending New York Center
02:06PM 40.7750 -76.8683 26° Northeast 287 330 17,000  Level New York Center
02:07PM 40.8547 -76.8206 24° Northeast 282 325 17,000  Level New York Center
02:08PM 40.9275 -76.7803 23° Northeast 282 325 17,000  Level New York Center
02:09PM 40.9942 -76.7394 25° Northeast 289 333 17,000  Level New York Center
02:10PM 41.0653 -76.6933 26° Northeast 289 333 17,000  Level New York Center
02:11PM 41.1406 -76.6450 26° Northeast 283 326 17,000  Level New York Center
02:12PM 41.2136 -76.6017 24° Northeast 283 326 17,000  Level New York Center
02:13PM 41.2869 -76.5528 27° Northeast 288 331 17,000  Level New York Center
02:14PM 41.3514 -76.5139 24° Northeast 288 331 17,000  Level New York Center
02:15PM 41.4306 -76.4683 23° Northeast 288 331 17,000 -300 Level New York Center
02:16PM 41.5014 -76.4244 25° Northeast 283 326 16,500 -900 Descending New York Center
02:17PM 41.5764 -76.3781 25° Northeast 288 331 15,300 -1,320 Descending New York Center
02:18PM 41.6450 -76.3367 24° Northeast 293 337 13,900 -1,500 Descending New York Center
02:19PM 41.7117 -76.2947 25° Northeast 275 316 12,400 -1,620 Descending New York Center
02:20PM 41.7803 -76.2506 26° Northeast 254 292 10,700 -1,680 Descending New York Center
02:21PM 41.8308 -76.1906 41° Northeast 244 281 9,100 -1,680 Descending New York Center
02:22PM 41.8636 -76.1097 61° Northeast 242 278 7,400 -1,620 Descending New York Center
02:23PM 41.8919 -76.0367 62° Northeast 242 278 5,900 -1,560 Descending New York Center
02:24PM 41.9206 -75.9556 65° Northeast 242 278 4,300 -960 Descending New York Center
02:25PM 41.9556 -75.8689 61° Northeast 232 267 4,000 -240 Descending New York Center
02:26PM 41.9992 -75.8194 40° Northeast 224 258 3,900  Descending New York Center
02:27PM 42.0461 -75.8453 338° Northwest 162 186 4,000 60 Climbing New York Center
02:28PM 42.0869 -75.8622 343° North 156 180 4,100 1,980 Climbing New York Center
02:29PM 42.1278 -75.8794 343° North 156 180 8,000 1,920 Climbing New York Center
02:30PM 42.1686 -75.8967 343° North 156 180 8,000  Level New York Center
02:31PM 42.2097 -75.9139 343° North 156 180 8,000  Level New York Center
02:32PM 42.2261 -75.9206 343° North 156 180 8,000  Level New York Center
02:33PM 42.0503 -75.9853 195° South 156 180 8,000  Level New York Center
02:35PM 42.1522 -75.9726 North  Level FlightAware Approximate
02:42PM 42.2000 -75.9667 333° Northwest  Level FlightAware Approximate
02:43PM 42.2084 -75.9796 333° Northwest  Level Estimated
02:44PM 42.2084 -75.9796 333° Northwest  Level Estimated
02:45PM 42.2084 -75.9796 333° Northwest  Level Estimated
02:46PM 42.2084 -75.9796 333° Northwest  Level Estimated